PWSweather.com
Personal Weather Stations
Station Observations
KOHAVON11
Long Road Station, Avon, OH 44011

Long Road StationAvon, OH 44011

Lat: 41.437, Lon: -82.0477

Elevation: 686

Station Type: Davis Vantage Pro2

http://www.avon-weather.com

Latest ConditionsUpdated 5:27:51 PM EST Sunday, Jan 20, 2019
Currently Today's Max Today's Min Today's Average
Temperature 11.5°F-11.4°C 21.7°F-5.7°C 11.5°F-11.4°C 16.3°F-8.7°C
Dew Point 6.0°F-14.4°C 18.8°F-7.3°C 6.0°F-14.4°C 12.3°F-10.9°C
Winds 4.0 mph NNW6.4 kmh NNW 28.0 mph -45.1 kmh - - 9.4 mph 15.1 kmh
Wind Gusts 22.0 mph35.4 kmh 32.0 mph51.5 kmh - -
Humidity 78% 88% 78% 84%
Pressure 30.21 in1023.0 mb 30.21 in1023.0 mb 29.73 in1006.8 mb -
Precipitation - 0.11 in2.8 mm - -
Hour Temp Dew Point Humidity Winds Wind Gusts Pressure Precip Precip Rate Daily Precip Total
05:27 PM 11.5°F-11.4°C 6.0°F-14.4°C 78% 4.0 mph NNW6.4 kmh NNW 22.0 mph35.4 kmh 30.21 in1023.0 mb 0.00 in0.0 mm 0.00 in0.0 mm 0.11 in2.8 mm
05:22 PM 11.6°F-11.3°C 6.1°F-14.4°C 78% 5.0 mph NW8.0 kmh NW 22.0 mph35.4 kmh 30.21 in1023.0 mb 0.00 in0.0 mm 0.00 in0.0 mm 0.11 in2.8 mm
05:17 PM 11.6°F-11.3°C 6.1°F-14.4°C 78% 5.0 mph NW8.0 kmh NW 22.0 mph35.4 kmh 30.21 in1023.0 mb 0.00 in0.0 mm 0.00 in0.0 mm 0.11 in2.8 mm
05:12 PM 11.6°F-11.3°C 6.1°F-14.4°C 78% 5.0 mph WNW8.0 kmh WNW 18.0 mph29.0 kmh 30.21 in1023.0 mb 0.00 in0.0 mm 0.00 in0.0 mm 0.11 in2.8 mm
05:07 PM 11.7°F-11.3°C 6.2°F-14.3°C 78% 15.0 mph NW24.1 kmh NW 18.0 mph29.0 kmh 30.20 in1022.7 mb 0.00 in0.0 mm 0.00 in0.0 mm 0.11 in2.8 mm
05:02 PM 11.8°F-11.2°C 6.3°F-14.3°C 78% 6.0 mph NW9.7 kmh NW 18.0 mph29.0 kmh 30.20 in1022.7 mb 0.00 in0.0 mm 0.00 in0.0 mm 0.11 in2.8 mm
04:57 PM 11.9°F-11.2°C 6.4°F-14.2°C 78% 7.0 mph NW11.3 kmh NW 18.0 mph29.0 kmh 30.20 in1022.7 mb 0.00 in0.0 mm 0.00 in0.0 mm 0.11 in2.8 mm
04:52 PM 12.0°F-11.1°C 6.5°F-14.2°C 78% 4.0 mph N6.4 kmh N 18.0 mph29.0 kmh 30.20 in1022.7 mb 0.00 in0.0 mm 0.00 in0.0 mm 0.11 in2.8 mm
04:47 PM 12.1°F-11.1°C 6.9°F-13.9°C 79% 9.0 mph NW14.5 kmh NW 18.0 mph29.0 kmh 30.19 in1022.4 mb 0.00 in0.0 mm 0.00 in0.0 mm 0.11 in2.8 mm
04:42 PM 12.2°F-11.0°C 7.0°F-13.9°C 79% 5.0 mph NW8.0 kmh NW 20.0 mph32.2 kmh 30.19 in1022.4 mb 0.00 in0.0 mm 0.00 in0.0 mm 0.11 in2.8 mm
04:37 PM 12.3°F-10.9°C 7.1°F-13.8°C 79% 8.0 mph 12.9 kmh 20.0 mph32.2 kmh 30.19 in1022.4 mb 0.00 in0.0 mm 0.00 in0.0 mm 0.11 in2.8 mm
04:32 PM 12.3°F-10.9°C 7.1°F-13.8°C 79% 6.0 mph NW9.7 kmh NW 20.0 mph32.2 kmh 30.19 in1022.4 mb 0.00 in0.0 mm 0.00 in0.0 mm 0.11 in2.8 mm
04:27 PM 12.4°F-10.9°C 7.2°F-13.8°C 79% 6.0 mph WNW9.7 kmh WNW 20.0 mph32.2 kmh 30.18 in1022.0 mb 0.00 in0.0 mm 0.00 in0.0 mm 0.11 in2.8 mm
04:22 PM 12.5°F-10.8°C 7.3°F-13.7°C 79% 9.0 mph NW14.5 kmh NW 17.0 mph27.4 kmh 30.18 in1022.0 mb 0.00 in0.0 mm 0.00 in0.0 mm 0.11 in2.8 mm
04:17 PM 12.6°F-10.8°C 7.4°F-13.7°C 79% 7.0 mph NW11.3 kmh NW 16.0 mph25.7 kmh 30.18 in1022.0 mb 0.00 in0.0 mm 0.00 in0.0 mm 0.11 in2.8 mm
04:12 PM 12.7°F-10.7°C 7.5°F-13.6°C 79% 5.0 mph NNW8.0 kmh NNW 17.0 mph27.4 kmh 30.18 in1022.0 mb 0.00 in0.0 mm 0.00 in0.0 mm 0.11 in2.8 mm
04:07 PM 12.7°F-10.7°C 7.5°F-13.6°C 79% 8.0 mph WNW12.9 kmh WNW 17.0 mph27.4 kmh 30.17 in1021.7 mb 0.00 in0.0 mm 0.00 in0.0 mm 0.11 in2.8 mm
04:02 PM 12.8°F-10.7°C 7.8°F-13.4°C 80% 14.0 mph NW22.5 kmh NW 20.0 mph32.2 kmh 30.17 in1021.7 mb 0.00 in0.0 mm 0.00 in0.0 mm 0.11 in2.8 mm
03:57 PM 12.9°F-10.6°C 7.9°F-13.4°C 80% 16.0 mph N25.7 kmh N 20.0 mph32.2 kmh 30.17 in1021.7 mb 0.00 in0.0 mm 0.00 in0.0 mm 0.11 in2.8 mm
03:52 PM 13.0°F-10.6°C 8.0°F-13.3°C 80% 5.0 mph 8.0 kmh 20.0 mph32.2 kmh 30.16 in1021.3 mb 0.00 in0.0 mm 0.00 in0.0 mm 0.11 in2.8 mm
03:47 PM 13.0°F-10.6°C 8.0°F-13.3°C 80% 6.0 mph WNW9.7 kmh WNW 20.0 mph32.2 kmh 30.16 in1021.3 mb 0.00 in0.0 mm 0.00 in0.0 mm 0.11 in2.8 mm
03:42 PM 13.2°F-10.4°C 8.2°F-13.2°C 80% 6.0 mph NW9.7 kmh NW 15.0 mph24.1 kmh 30.16 in1021.3 mb 0.00 in0.0 mm 0.00 in0.0 mm 0.11 in2.8 mm
03:37 PM 13.3°F-10.4°C 8.6°F-13.0°C 81% 7.0 mph N11.3 kmh N 17.0 mph27.4 kmh 30.15 in1021.0 mb 0.00 in0.0 mm 0.00 in0.0 mm 0.11 in2.8 mm
03:32 PM 13.4°F-10.3°C 8.7°F-12.9°C 81% 5.0 mph NW8.0 kmh NW 17.0 mph27.4 kmh 30.15 in1021.0 mb 0.00 in0.0 mm 0.00 in0.0 mm 0.11 in2.8 mm
03:27 PM 13.3°F-10.4°C 8.6°F-13.0°C 81% 4.0 mph N6.4 kmh N 22.0 mph35.4 kmh 30.15 in1021.0 mb 0.00 in0.0 mm 0.00 in0.0 mm 0.11 in2.8 mm
03:22 PM 13.3°F-10.4°C 8.6°F-13.0°C 81% 8.0 mph W12.9 kmh W 22.0 mph35.4 kmh 30.15 in1021.0 mb 0.00 in0.0 mm 0.00 in0.0 mm 0.11 in2.8 mm
03:17 PM 13.4°F-10.3°C 8.7°F-12.9°C 81% 11.0 mph NW17.7 kmh NW 22.0 mph35.4 kmh 30.14 in1020.7 mb 0.00 in0.0 mm 0.00 in0.0 mm 0.11 in2.8 mm
03:12 PM 13.5°F-10.3°C 8.8°F-12.9°C 81% 10.0 mph WNW16.1 kmh WNW 22.0 mph35.4 kmh 30.14 in1020.7 mb 0.00 in0.0 mm 0.00 in0.0 mm 0.11 in2.8 mm
03:07 PM 13.5°F-10.3°C 8.8°F-12.9°C 81% 7.0 mph NW11.3 kmh NW 17.0 mph27.4 kmh 30.14 in1020.7 mb 0.00 in0.0 mm 0.00 in0.0 mm 0.11 in2.8 mm
03:02 PM 13.7°F-10.2°C 9.0°F-12.8°C 81% 10.0 mph N16.1 kmh N 22.0 mph35.4 kmh 30.14 in1020.7 mb 0.00 in0.0 mm 0.00 in0.0 mm 0.11 in2.8 mm
02:57 PM 13.7°F-10.2°C 9.0°F-12.8°C 81% 9.0 mph N14.5 kmh N 22.0 mph35.4 kmh 30.13 in1020.3 mb 0.00 in0.0 mm 0.00 in0.0 mm 0.11 in2.8 mm
02:52 PM 13.7°F-10.2°C 9.0°F-12.8°C 81% 12.0 mph N19.3 kmh N 22.0 mph35.4 kmh 30.13 in1020.3 mb 0.00 in0.0 mm 0.00 in0.0 mm 0.11 in2.8 mm
02:47 PM 13.7°F-10.2°C 9.0°F-12.8°C 81% 12.0 mph NW19.3 kmh NW 22.0 mph35.4 kmh 30.13 in1020.3 mb 0.00 in0.0 mm 0.00 in0.0 mm 0.11 in2.8 mm
02:42 PM 13.8°F-10.1°C 9.1°F-12.7°C 81% 7.0 mph NNE11.3 kmh NNE 18.0 mph29.0 kmh 30.12 in1020.0 mb 0.00 in0.0 mm 0.00 in0.0 mm 0.11 in2.8 mm
02:37 PM 13.8°F-10.1°C 9.1°F-12.7°C 81% 7.0 mph WNW11.3 kmh WNW 18.0 mph29.0 kmh 30.12 in1020.0 mb 0.00 in0.0 mm 0.00 in0.0 mm 0.11 in2.8 mm
02:32 PM 13.9°F-10.1°C 9.2°F-12.7°C 81% 6.0 mph NW9.7 kmh NW 17.0 mph27.4 kmh 30.12 in1020.0 mb 0.00 in0.0 mm 0.00 in0.0 mm 0.11 in2.8 mm
02:27 PM 14.0°F-10.0°C 9.3°F-12.6°C 81% 5.0 mph N8.0 kmh N 20.0 mph32.2 kmh 30.11 in1019.6 mb 0.00 in0.0 mm 0.00 in0.0 mm 0.11 in2.8 mm
02:22 PM 14.1°F-9.9°C 9.4°F-12.6°C 81% 6.0 mph NW9.7 kmh NW 20.0 mph32.2 kmh 30.11 in1019.6 mb 0.00 in0.0 mm 0.00 in0.0 mm 0.11 in2.8 mm
02:17 PM 14.2°F-9.9°C 9.5°F-12.5°C 81% 7.0 mph NNW11.3 kmh NNW 20.0 mph32.2 kmh 30.11 in1019.6 mb 0.00 in0.0 mm 0.00 in0.0 mm 0.11 in2.8 mm
02:12 PM 14.2°F-9.9°C 9.5°F-12.5°C 81% 6.0 mph NE9.7 kmh NE 20.0 mph32.2 kmh 30.11 in1019.6 mb 0.00 in0.0 mm 0.00 in0.0 mm 0.11 in2.8 mm
02:07 PM 14.2°F-9.9°C 9.5°F-12.5°C 81% 8.0 mph NW12.9 kmh NW 19.0 mph30.6 kmh 30.10 in1019.3 mb 0.00 in0.0 mm 0.00 in0.0 mm 0.11 in2.8 mm
02:02 PM 14.3°F-9.8°C 9.6°F-12.4°C 81% 7.0 mph NW11.3 kmh NW 21.0 mph33.8 kmh 30.10 in1019.3 mb 0.00 in0.0 mm 0.00 in0.0 mm 0.11 in2.8 mm
01:57 PM 14.5°F-9.7°C 9.8°F-12.3°C 81% 17.0 mph NNW27.4 kmh NNW 21.0 mph33.8 kmh 30.10 in1019.3 mb 0.00 in0.0 mm 0.00 in0.0 mm 0.11 in2.8 mm
01:52 PM 14.7°F-9.6°C 10.0°F-12.2°C 81% 5.0 mph NNW8.0 kmh NNW 21.0 mph33.8 kmh 30.10 in1019.3 mb 0.00 in0.0 mm 0.00 in0.0 mm 0.11 in2.8 mm
01:47 PM 14.7°F-9.6°C 10.3°F-12.1°C 82% 12.0 mph NW19.3 kmh NW 21.0 mph33.8 kmh 30.10 in1019.3 mb 0.00 in0.0 mm 0.00 in0.0 mm 0.11 in2.8 mm
01:42 PM 14.8°F-9.6°C 10.4°F-12.0°C 82% 9.0 mph NW14.5 kmh NW 20.0 mph32.2 kmh 30.10 in1019.3 mb 0.00 in0.0 mm 0.00 in0.0 mm 0.11 in2.8 mm
01:37 PM 14.7°F-9.6°C 10.3°F-12.1°C 82% 10.0 mph NW16.1 kmh NW 23.0 mph37.0 kmh 30.09 in1019.0 mb 0.00 in0.0 mm 0.00 in0.0 mm 0.11 in2.8 mm
01:32 PM 14.6°F-9.7°C 10.2°F-12.1°C 82% 9.0 mph N14.5 kmh N 23.0 mph37.0 kmh 30.09 in1019.0 mb 0.00 in0.0 mm 0.00 in0.0 mm 0.11 in2.8 mm
01:27 PM 14.6°F-9.7°C 10.2°F-12.1°C 82% 5.0 mph NW8.0 kmh NW 23.0 mph37.0 kmh 30.09 in1019.0 mb 0.00 in0.0 mm 0.00 in0.0 mm 0.11 in2.8 mm
01:22 PM 14.6°F-9.7°C 10.2°F-12.1°C 82% 6.0 mph WNW9.7 kmh WNW 23.0 mph37.0 kmh 30.09 in1019.0 mb 0.00 in0.0 mm 0.00 in0.0 mm 0.11 in2.8 mm
01:17 PM 14.7°F-9.6°C 10.3°F-12.1°C 82% 10.0 mph NNE16.1 kmh NNE 21.0 mph33.8 kmh 30.09 in1019.0 mb 0.00 in0.0 mm 0.00 in0.0 mm 0.11 in2.8 mm
01:12 PM 14.6°F-9.7°C 10.2°F-12.1°C 82% 7.0 mph NNW11.3 kmh NNW 17.0 mph27.4 kmh 30.09 in1019.0 mb 0.00 in0.0 mm 0.00 in0.0 mm 0.11 in2.8 mm
01:07 PM 14.8°F-9.6°C 10.4°F-12.0°C 82% 7.0 mph N11.3 kmh N 22.0 mph35.4 kmh 30.09 in1019.0 mb 0.00 in0.0 mm 0.00 in0.0 mm 0.11 in2.8 mm
01:02 PM 14.8°F-9.6°C 10.4°F-12.0°C 82% 8.0 mph NNW12.9 kmh NNW 22.0 mph35.4 kmh 30.09 in1019.0 mb 0.00 in0.0 mm 0.00 in0.0 mm 0.11 in2.8 mm
12:57 PM 14.7°F-9.6°C 10.3°F-12.1°C 82% 7.0 mph NNW11.3 kmh NNW 22.0 mph35.4 kmh 30.09 in1019.0 mb 0.00 in0.0 mm 0.00 in0.0 mm 0.11 in2.8 mm
12:52 PM 14.8°F-9.6°C 10.4°F-12.0°C 82% 7.0 mph NW11.3 kmh NW 22.0 mph35.4 kmh 30.09 in1019.0 mb 0.00 in0.0 mm 0.00 in0.0 mm 0.11 in2.8 mm
12:47 PM 15.0°F-9.4°C 10.6°F-11.9°C 82% 4.0 mph NW6.4 kmh NW 19.0 mph30.6 kmh 30.09 in1019.0 mb 0.00 in0.0 mm 0.00 in0.0 mm 0.11 in2.8 mm
12:42 PM 15.1°F-9.4°C 10.9°F-11.7°C 83% 6.0 mph N9.7 kmh N 19.0 mph30.6 kmh 30.08 in1018.6 mb 0.00 in0.0 mm 0.00 in0.0 mm 0.11 in2.8 mm
12:37 PM 15.1°F-9.4°C 10.9°F-11.7°C 83% 6.0 mph NW9.7 kmh NW 18.0 mph29.0 kmh 30.09 in1019.0 mb 0.00 in0.0 mm 0.00 in0.0 mm 0.11 in2.8 mm
12:32 PM 15.2°F-9.3°C 11.0°F-11.7°C 83% 10.0 mph NW16.1 kmh NW 19.0 mph30.6 kmh 30.08 in1018.6 mb 0.00 in0.0 mm 0.00 in0.0 mm 0.11 in2.8 mm
12:27 PM 15.1°F-9.4°C 10.9°F-11.7°C 83% 5.0 mph NNE8.0 kmh NNE 19.0 mph30.6 kmh 30.08 in1018.6 mb 0.00 in0.0 mm 0.00 in0.0 mm 0.11 in2.8 mm
12:22 PM 15.1°F-9.4°C 10.9°F-11.7°C 83% 6.0 mph NW9.7 kmh NW 19.0 mph30.6 kmh 30.08 in1018.6 mb 0.00 in0.0 mm 0.00 in0.0 mm 0.11 in2.8 mm
12:17 PM 15.3°F-9.3°C 11.1°F-11.6°C 83% 4.0 mph NW6.4 kmh NW 19.0 mph30.6 kmh 30.08 in1018.6 mb 0.00 in0.0 mm 0.00 in0.0 mm 0.11 in2.8 mm
12:12 PM 15.4°F-9.2°C 11.2°F-11.6°C 83% 6.0 mph NE9.7 kmh NE 17.0 mph27.4 kmh 30.08 in1018.6 mb 0.00 in0.0 mm 0.00 in0.0 mm 0.11 in2.8 mm
12:07 PM 15.6°F-9.1°C 11.4°F-11.4°C 83% 6.0 mph N9.7 kmh N 23.0 mph37.0 kmh 30.08 in1018.6 mb 0.00 in0.0 mm 0.00 in0.0 mm 0.11 in2.8 mm
12:02 PM 15.5°F-9.2°C 11.6°F-11.3°C 84% 8.0 mph NNW12.9 kmh NNW 23.0 mph37.0 kmh 30.08 in1018.6 mb 0.00 in0.0 mm 0.00 in0.0 mm 0.11 in2.8 mm
11:57 AM 15.4°F-9.2°C 11.5°F-11.4°C 84% 8.0 mph NNW12.9 kmh NNW 23.0 mph37.0 kmh 30.08 in1018.6 mb 0.00 in0.0 mm 0.00 in0.0 mm 0.11 in2.8 mm
11:52 AM 15.5°F-9.2°C 11.6°F-11.3°C 84% 6.0 mph N9.7 kmh N 23.0 mph37.0 kmh 30.08 in1018.6 mb 0.00 in0.0 mm 0.00 in0.0 mm 0.11 in2.8 mm
11:47 AM 15.3°F-9.3°C 11.4°F-11.4°C 84% 4.0 mph NNW6.4 kmh NNW 19.0 mph30.6 kmh 30.08 in1018.6 mb 0.00 in0.0 mm 0.00 in0.0 mm 0.11 in2.8 mm
11:42 AM 15.3°F-9.3°C 11.4°F-11.4°C 84% 4.0 mph NNW6.4 kmh NNW 17.0 mph27.4 kmh 30.08 in1018.6 mb 0.00 in0.0 mm 0.00 in0.0 mm 0.11 in2.8 mm
11:37 AM 15.3°F-9.3°C 11.4°F-11.4°C 84% 10.0 mph WNW16.1 kmh WNW 17.0 mph27.4 kmh 30.07 in1018.3 mb 0.00 in0.0 mm 0.00 in0.0 mm 0.11 in2.8 mm
11:32 AM 15.4°F-9.2°C 11.5°F-11.4°C 84% 9.0 mph WNW14.5 kmh WNW 17.0 mph27.4 kmh 30.07 in1018.3 mb 0.00 in0.0 mm 0.00 in0.0 mm 0.11 in2.8 mm
11:27 AM 15.5°F-9.2°C 11.6°F-11.3°C 84% 7.0 mph NW11.3 kmh NW 19.0 mph30.6 kmh 30.07 in1018.3 mb 0.00 in0.0 mm 0.00 in0.0 mm 0.11 in2.8 mm
11:22 AM 15.4°F-9.2°C 11.5°F-11.4°C 84% 6.0 mph NNW9.7 kmh NNW 19.0 mph30.6 kmh 30.07 in1018.3 mb 0.00 in0.0 mm 0.00 in0.0 mm 0.11 in2.8 mm
11:17 AM 15.5°F-9.2°C 11.6°F-11.3°C 84% 6.0 mph NW9.7 kmh NW 21.0 mph33.8 kmh 30.07 in1018.3 mb 0.00 in0.0 mm 0.00 in0.0 mm 0.11 in2.8 mm
11:12 AM 15.5°F-9.2°C 11.6°F-11.3°C 84% 3.0 mph NNW4.8 kmh NNW 21.0 mph33.8 kmh 30.07 in1018.3 mb 0.00 in0.0 mm 0.00 in0.0 mm 0.11 in2.8 mm
11:07 AM 15.6°F-9.1°C 11.7°F-11.3°C 84% 9.0 mph NNW14.5 kmh NNW 21.0 mph33.8 kmh 30.07 in1018.3 mb 0.00 in0.0 mm 0.00 in0.0 mm 0.11 in2.8 mm
11:02 AM 15.7°F-9.1°C 11.8°F-11.2°C 84% 5.0 mph NW8.0 kmh NW 21.0 mph33.8 kmh 30.06 in1017.9 mb 0.00 in0.0 mm 0.00 in0.0 mm 0.11 in2.8 mm
10:57 AM 15.7°F-9.1°C 11.8°F-11.2°C 84% 4.0 mph NNW6.4 kmh NNW 20.0 mph32.2 kmh 30.06 in1017.9 mb 0.00 in0.0 mm 0.00 in0.0 mm 0.11 in2.8 mm
10:52 AM 15.7°F-9.1°C 11.8°F-11.2°C 84% 7.0 mph WNW11.3 kmh WNW 15.0 mph24.1 kmh 30.06 in1017.9 mb 0.00 in0.0 mm 0.00 in0.0 mm 0.11 in2.8 mm
10:47 AM 15.6°F-9.1°C 11.7°F-11.3°C 84% 6.0 mph NW9.7 kmh NW 21.0 mph33.8 kmh 30.06 in1017.9 mb 0.00 in0.0 mm 0.00 in0.0 mm 0.10 in2.5 mm
10:42 AM 15.5°F-9.2°C 11.6°F-11.3°C 84% 8.0 mph NW12.9 kmh NW 21.0 mph33.8 kmh 30.06 in1017.9 mb 0.00 in0.0 mm 0.00 in0.0 mm 0.10 in2.5 mm
10:37 AM 15.5°F-9.2°C 11.6°F-11.3°C 84% 3.0 mph NNW4.8 kmh NNW 21.0 mph33.8 kmh 30.05 in1017.6 mb 0.00 in0.0 mm 0.00 in0.0 mm 0.10 in2.5 mm
10:32 AM 15.4°F-9.2°C 11.5°F-11.4°C 84% 12.0 mph NNW19.3 kmh NNW 21.0 mph33.8 kmh 30.05 in1017.6 mb 0.00 in0.0 mm 0.00 in0.0 mm 0.10 in2.5 mm
10:27 AM 15.4°F-9.2°C 11.5°F-11.4°C 84% 8.0 mph NW12.9 kmh NW 19.0 mph30.6 kmh 30.05 in1017.6 mb 0.00 in0.0 mm 0.00 in0.0 mm 0.10 in2.5 mm
10:22 AM 15.3°F-9.3°C 11.4°F-11.4°C 84% 10.0 mph NNW16.1 kmh NNW 19.0 mph30.6 kmh 30.05 in1017.6 mb 0.00 in0.0 mm 0.00 in0.0 mm 0.10 in2.5 mm
10:17 AM 15.4°F-9.2°C 11.5°F-11.4°C 84% 7.0 mph NW11.3 kmh NW 22.0 mph35.4 kmh 30.04 in1017.3 mb 0.00 in0.0 mm 0.00 in0.0 mm 0.10 in2.5 mm
10:12 AM 15.5°F-9.2°C 11.6°F-11.3°C 84% 14.0 mph NW22.5 kmh NW 22.0 mph35.4 kmh 30.04 in1017.3 mb 0.00 in0.0 mm 0.00 in0.0 mm 0.10 in2.5 mm
10:07 AM 15.6°F-9.1°C 11.7°F-11.3°C 84% 7.0 mph NE11.3 kmh NE 22.0 mph35.4 kmh 30.04 in1017.3 mb 0.00 in0.0 mm 0.00 in0.0 mm 0.10 in2.5 mm
10:02 AM 15.7°F-9.1°C 11.8°F-11.2°C 84% 12.0 mph NW19.3 kmh NW 22.0 mph35.4 kmh 30.03 in1016.9 mb 0.00 in0.0 mm 0.00 in0.0 mm 0.10 in2.5 mm
09:57 AM 15.8°F-9.0°C 11.9°F-11.2°C 84% 12.0 mph W19.3 kmh W 14.0 mph22.5 kmh 30.03 in1016.9 mb 0.00 in0.0 mm 0.00 in0.0 mm 0.10 in2.5 mm
09:52 AM 15.8°F-9.0°C 11.9°F-11.2°C 84% 9.0 mph NW14.5 kmh NW 19.0 mph30.6 kmh 30.02 in1016.6 mb 0.00 in0.0 mm 0.00 in0.0 mm 0.10 in2.5 mm
09:47 AM 15.9°F-8.9°C 12.0°F-11.1°C 84% 11.0 mph NNW17.7 kmh NNW 19.0 mph30.6 kmh 30.02 in1016.6 mb 0.00 in0.0 mm 0.00 in0.0 mm 0.10 in2.5 mm
09:42 AM 15.8°F-9.0°C 11.9°F-11.2°C 84% 9.0 mph NE14.5 kmh NE 22.0 mph35.4 kmh 30.02 in1016.6 mb 0.00 in0.0 mm 0.00 in0.0 mm 0.10 in2.5 mm
09:37 AM 15.8°F-9.0°C 11.9°F-11.2°C 84% 12.0 mph NE19.3 kmh NE 22.0 mph35.4 kmh 30.02 in1016.6 mb 0.00 in0.0 mm 0.00 in0.0 mm 0.10 in2.5 mm
09:32 AM 15.7°F-9.1°C 11.8°F-11.2°C 84% 9.0 mph NW14.5 kmh NW 22.0 mph35.4 kmh 30.02 in1016.6 mb 0.00 in0.0 mm 0.00 in0.0 mm 0.10 in2.5 mm
09:27 AM 15.6°F-9.1°C 11.7°F-11.3°C 84% 17.0 mph NE27.4 kmh NE 22.0 mph35.4 kmh 30.02 in1016.6 mb 0.00 in0.0 mm 0.00 in0.0 mm 0.10 in2.5 mm
09:22 AM 15.7°F-9.1°C 11.8°F-11.2°C 84% 12.0 mph NE19.3 kmh NE 21.0 mph33.8 kmh 30.01 in1016.3 mb 0.00 in0.0 mm 0.00 in0.0 mm 0.10 in2.5 mm
09:17 AM 15.7°F-9.1°C 11.8°F-11.2°C 84% 15.0 mph N24.1 kmh N 21.0 mph33.8 kmh 30.01 in1016.3 mb 0.00 in0.0 mm 0.00 in0.0 mm 0.10 in2.5 mm
09:12 AM 15.9°F-8.9°C 12.0°F-11.1°C 84% 14.0 mph NW22.5 kmh NW 21.0 mph33.8 kmh 30.01 in1016.3 mb 0.00 in0.0 mm 0.00 in0.0 mm 0.10 in2.5 mm
09:07 AM 16.1°F-8.8°C 12.2°F-11.0°C 84% 17.0 mph NNW27.4 kmh NNW 23.0 mph37.0 kmh 30.01 in1016.3 mb 0.00 in0.0 mm 0.00 in0.0 mm 0.10 in2.5 mm
09:02 AM 16.2°F-8.8°C 12.3°F-10.9°C 84% 7.0 mph NNW11.3 kmh NNW 23.0 mph37.0 kmh 30.00 in1015.9 mb 0.00 in0.0 mm 0.00 in0.0 mm 0.10 in2.5 mm
08:57 AM 16.2°F-8.8°C 12.3°F-10.9°C 84% 8.0 mph NE12.9 kmh NE 23.0 mph37.0 kmh 30.00 in1015.9 mb 0.00 in0.0 mm 0.00 in0.0 mm 0.10 in2.5 mm
08:52 AM 16.3°F-8.7°C 12.4°F-10.9°C 84% 15.0 mph NNE24.1 kmh NNE 23.0 mph37.0 kmh 30.00 in1015.9 mb 0.00 in0.0 mm 0.00 in0.0 mm 0.10 in2.5 mm
08:47 AM 16.4°F-8.7°C 12.5°F-10.8°C 84% 6.0 mph NE9.7 kmh NE 21.0 mph33.8 kmh 30.00 in1015.9 mb 0.00 in0.0 mm 0.00 in0.0 mm 0.10 in2.5 mm
08:42 AM 16.4°F-8.7°C 12.5°F-10.8°C 84% 14.0 mph 22.5 kmh 21.0 mph33.8 kmh 29.99 in1015.6 mb 0.00 in0.0 mm 0.00 in0.0 mm 0.10 in2.5 mm
08:37 AM 16.5°F-8.6°C 12.6°F-10.8°C 84% 4.0 mph N6.4 kmh N 21.0 mph33.8 kmh 29.99 in1015.6 mb 0.00 in0.0 mm 0.00 in0.0 mm 0.10 in2.5 mm
08:32 AM 16.5°F-8.6°C 12.6°F-10.8°C 84% 15.0 mph N24.1 kmh N 19.0 mph30.6 kmh 29.99 in1015.6 mb 0.00 in0.0 mm 0.00 in0.0 mm 0.10 in2.5 mm
08:27 AM 16.6°F-8.6°C 12.7°F-10.7°C 84% 11.0 mph N17.7 kmh N 17.0 mph27.4 kmh 29.99 in1015.6 mb 0.00 in0.0 mm 0.00 in0.0 mm 0.10 in2.5 mm
08:22 AM 16.8°F-8.4°C 13.1°F-10.5°C 85% 15.0 mph NNW24.1 kmh NNW 17.0 mph27.4 kmh 29.99 in1015.6 mb 0.00 in0.0 mm 0.00 in0.0 mm 0.10 in2.5 mm
08:17 AM 16.9°F-8.4°C 13.2°F-10.4°C 85% 5.0 mph NNW8.0 kmh NNW 17.0 mph27.4 kmh 29.98 in1015.2 mb 0.00 in0.0 mm 0.00 in0.0 mm 0.10 in2.5 mm
08:12 AM 16.9°F-8.4°C 13.0°F-10.6°C 84% 9.0 mph 14.5 kmh 17.0 mph27.4 kmh 29.98 in1015.2 mb 0.00 in0.0 mm 0.00 in0.0 mm 0.10 in2.5 mm
08:07 AM 17.1°F-8.3°C 13.2°F-10.4°C 84% 15.0 mph N24.1 kmh N 18.0 mph29.0 kmh 29.97 in1014.9 mb 0.00 in0.0 mm 0.00 in0.0 mm 0.10 in2.5 mm
08:02 AM 17.2°F-8.2°C 13.5°F-10.3°C 85% 12.0 mph N19.3 kmh N 18.0 mph29.0 kmh 29.97 in1014.9 mb 0.00 in0.0 mm 0.00 in0.0 mm 0.10 in2.5 mm
07:57 AM 17.0°F-8.3°C 13.1°F-10.5°C 84% 7.0 mph NW11.3 kmh NW 22.0 mph35.4 kmh 29.97 in1014.9 mb 0.00 in0.0 mm 0.00 in0.0 mm 0.10 in2.5 mm
07:52 AM 16.9°F-8.4°C 13.0°F-10.6°C 84% 8.0 mph N12.9 kmh N 22.0 mph35.4 kmh 29.96 in1014.6 mb 0.00 in0.0 mm 0.00 in0.0 mm 0.10 in2.5 mm
07:47 AM 17.0°F-8.3°C 13.1°F-10.5°C 84% 5.0 mph NW8.0 kmh NW 22.0 mph35.4 kmh 29.96 in1014.6 mb 0.00 in0.0 mm 0.00 in0.0 mm 0.10 in2.5 mm
07:42 AM 17.1°F-8.3°C 13.2°F-10.4°C 84% 6.0 mph NNE9.7 kmh NNE 22.0 mph35.4 kmh 29.96 in1014.6 mb 0.00 in0.0 mm 0.00 in0.0 mm 0.10 in2.5 mm
07:37 AM 17.3°F-8.2°C 13.4°F-10.3°C 84% 5.0 mph NNE8.0 kmh NNE 17.0 mph27.4 kmh 29.95 in1014.2 mb 0.00 in0.0 mm 0.00 in0.0 mm 0.10 in2.5 mm
07:32 AM 17.3°F-8.2°C 13.4°F-10.3°C 84% 7.0 mph NE11.3 kmh NE 18.0 mph29.0 kmh 29.95 in1014.2 mb 0.00 in0.0 mm 0.00 in0.0 mm 0.10 in2.5 mm
07:27 AM 17.3°F-8.2°C 13.4°F-10.3°C 84% 13.0 mph NNW20.9 kmh NNW 18.0 mph29.0 kmh 29.94 in1013.9 mb 0.00 in0.0 mm 0.00 in0.0 mm 0.10 in2.5 mm
07:22 AM 17.3°F-8.2°C 13.4°F-10.3°C 84% 5.0 mph NW8.0 kmh NW 26.0 mph41.8 kmh 29.94 in1013.9 mb 0.00 in0.0 mm 0.00 in0.0 mm 0.10 in2.5 mm
07:17 AM 17.3°F-8.2°C 13.4°F-10.3°C 84% 15.0 mph 24.1 kmh 26.0 mph41.8 kmh 29.94 in1013.9 mb 0.00 in0.0 mm 0.00 in0.0 mm 0.10 in2.5 mm
07:12 AM 17.3°F-8.2°C 13.6°F-10.2°C 85% 6.0 mph NNW9.7 kmh NNW 26.0 mph41.8 kmh 29.94 in1013.9 mb 0.00 in0.0 mm 0.00 in0.0 mm 0.10 in2.5 mm
07:07 AM 17.2°F-8.2°C 13.5°F-10.3°C 85% 11.0 mph NW17.7 kmh NW 26.0 mph41.8 kmh 29.93 in1013.5 mb 0.00 in0.0 mm 0.00 in0.0 mm 0.10 in2.5 mm
07:02 AM 17.2°F-8.2°C 13.5°F-10.3°C 85% 8.0 mph NNE12.9 kmh NNE 24.0 mph38.6 kmh 29.93 in1013.5 mb 0.00 in0.0 mm 0.00 in0.0 mm 0.10 in2.5 mm
06:57 AM 17.2°F-8.2°C 13.5°F-10.3°C 85% 9.0 mph NW14.5 kmh NW 24.0 mph38.6 kmh 29.93 in1013.5 mb 0.00 in0.0 mm 0.00 in0.0 mm 0.10 in2.5 mm
06:52 AM 17.3°F-8.2°C 13.6°F-10.2°C 85% 24.0 mph N38.6 kmh N 32.0 mph51.5 kmh 29.92 in1013.2 mb 0.00 in0.0 mm 0.00 in0.0 mm 0.10 in2.5 mm
06:47 AM 17.3°F-8.2°C 13.6°F-10.2°C 85% 13.0 mph NNE20.9 kmh NNE 32.0 mph51.5 kmh 29.92 in1013.2 mb 0.00 in0.0 mm 0.00 in0.0 mm 0.10 in2.5 mm
06:42 AM 17.3°F-8.2°C 13.6°F-10.2°C 85% 5.0 mph NW8.0 kmh NW 32.0 mph51.5 kmh 29.91 in1012.9 mb 0.00 in0.0 mm 0.00 in0.0 mm 0.10 in2.5 mm
06:37 AM 17.3°F-8.2°C 13.6°F-10.2°C 85% 11.0 mph NNW17.7 kmh NNW 32.0 mph51.5 kmh 29.91 in1012.9 mb 0.00 in0.0 mm 0.00 in0.0 mm 0.10 in2.5 mm
06:32 AM 17.4°F-8.1°C 13.7°F-10.2°C 85% 13.0 mph NNE20.9 kmh NNE 30.0 mph48.3 kmh 29.91 in1012.9 mb 0.00 in0.0 mm 0.00 in0.0 mm 0.10 in2.5 mm
06:27 AM 17.4°F-8.1°C 13.7°F-10.2°C 85% 11.0 mph NW17.7 kmh NW 30.0 mph48.3 kmh 29.90 in1012.5 mb 0.00 in0.0 mm 0.00 in0.0 mm 0.10 in2.5 mm
06:22 AM 17.5°F-8.1°C 13.8°F-10.1°C 85% 13.0 mph NE20.9 kmh NE 27.0 mph43.5 kmh 29.90 in1012.5 mb 0.00 in0.0 mm 0.00 in0.0 mm 0.10 in2.5 mm
06:17 AM 17.6°F-8.0°C 13.9°F-10.1°C 85% 8.0 mph NNW12.9 kmh NNW 31.0 mph49.9 kmh 29.90 in1012.5 mb 0.00 in0.0 mm 0.00 in0.0 mm 0.10 in2.5 mm
06:12 AM 17.5°F-8.1°C 13.8°F-10.1°C 85% 11.0 mph NNE17.7 kmh NNE 31.0 mph49.9 kmh 29.89 in1012.2 mb 0.00 in0.0 mm 0.00 in0.0 mm 0.10 in2.5 mm
06:07 AM 17.5°F-8.1°C 13.8°F-10.1°C 85% 28.0 mph N45.1 kmh N 31.0 mph49.9 kmh 29.89 in1012.2 mb 0.00 in0.0 mm 0.00 in0.0 mm 0.10 in2.5 mm
06:02 AM 17.6°F-8.0°C 14.2°F-9.9°C 86% 14.0 mph NE22.5 kmh NE 31.0 mph49.9 kmh 29.89 in1012.2 mb 0.00 in0.0 mm 0.00 in0.0 mm 0.10 in2.5 mm
05:57 AM 17.6°F-8.0°C 14.2°F-9.9°C 86% 15.0 mph NE24.1 kmh NE 26.0 mph41.8 kmh 29.88 in1011.9 mb 0.00 in0.0 mm 0.00 in0.0 mm 0.10 in2.5 mm
05:52 AM 17.6°F-8.0°C 14.2°F-9.9°C 86% 15.0 mph NNE24.1 kmh NNE 26.0 mph41.8 kmh 29.88 in1011.9 mb 0.00 in0.0 mm 0.00 in0.0 mm 0.10 in2.5 mm
05:47 AM 17.6°F-8.0°C 14.2°F-9.9°C 86% 8.0 mph NE12.9 kmh NE 26.0 mph41.8 kmh 29.87 in1011.5 mb 0.00 in0.0 mm 0.00 in0.0 mm 0.10 in2.5 mm
05:42 AM 17.7°F-7.9°C 14.3°F-9.8°C 86% 11.0 mph NNW17.7 kmh NNW 26.0 mph41.8 kmh 29.87 in1011.5 mb 0.00 in0.0 mm 0.00 in0.0 mm 0.10 in2.5 mm
05:37 AM 17.8°F-7.9°C 14.4°F-9.8°C 86% 13.0 mph NNE20.9 kmh NNE 26.0 mph41.8 kmh 29.86 in1011.2 mb 0.00 in0.0 mm 0.00 in0.0 mm 0.10 in2.5 mm
05:32 AM 17.9°F-7.8°C 14.5°F-9.7°C 86% 16.0 mph NNE25.7 kmh NNE 26.0 mph41.8 kmh 29.86 in1011.2 mb 0.00 in0.0 mm 0.00 in0.0 mm 0.10 in2.5 mm
05:27 AM 18.1°F-7.7°C 14.7°F-9.6°C 86% 10.0 mph NNW16.1 kmh NNW 27.0 mph43.5 kmh 29.86 in1011.2 mb 0.00 in0.0 mm 0.00 in0.0 mm 0.10 in2.5 mm
05:22 AM 18.2°F-7.7°C 14.8°F-9.6°C 86% 17.0 mph NNE27.4 kmh NNE 27.0 mph43.5 kmh 29.85 in1010.8 mb 0.00 in0.0 mm 0.00 in0.0 mm 0.10 in2.5 mm
05:17 AM 18.3°F-7.6°C 14.9°F-9.5°C 86% 15.0 mph NE24.1 kmh NE 27.0 mph43.5 kmh 29.85 in1010.8 mb 0.00 in0.0 mm 0.00 in0.0 mm 0.10 in2.5 mm
05:12 AM 18.3°F-7.6°C 14.9°F-9.5°C 86% 15.0 mph N24.1 kmh N 27.0 mph43.5 kmh 29.85 in1010.8 mb 0.00 in0.0 mm 0.00 in0.0 mm 0.10 in2.5 mm
05:07 AM 18.3°F-7.6°C 14.9°F-9.5°C 86% 17.0 mph NE27.4 kmh NE 27.0 mph43.5 kmh 29.84 in1010.5 mb 0.00 in0.0 mm 0.00 in0.0 mm 0.10 in2.5 mm
05:02 AM 18.3°F-7.6°C 14.9°F-9.5°C 86% 9.0 mph N14.5 kmh N 27.0 mph43.5 kmh 29.84 in1010.5 mb 0.00 in0.0 mm 0.00 in0.0 mm 0.10 in2.5 mm
04:57 AM 18.3°F-7.6°C 14.9°F-9.5°C 86% 17.0 mph NNE27.4 kmh NNE 24.0 mph38.6 kmh 29.83 in1010.2 mb 0.00 in0.0 mm 0.00 in0.0 mm 0.10 in2.5 mm
04:52 AM 18.3°F-7.6°C 14.9°F-9.5°C 86% 19.0 mph NNW30.6 kmh NNW 24.0 mph38.6 kmh 29.82 in1009.8 mb 0.00 in0.0 mm 0.00 in0.0 mm 0.10 in2.5 mm
04:47 AM 18.2°F-7.7°C 14.8°F-9.6°C 86% 14.0 mph NW22.5 kmh NW 24.0 mph38.6 kmh 29.82 in1009.8 mb 0.00 in0.0 mm 0.00 in0.0 mm 0.10 in2.5 mm
04:42 AM 18.0°F-7.8°C 14.6°F-9.7°C 86% 15.0 mph NE24.1 kmh NE 24.0 mph38.6 kmh 29.82 in1009.8 mb 0.00 in0.0 mm 0.00 in0.0 mm 0.10 in2.5 mm
04:37 AM 17.9°F-7.8°C 14.5°F-9.7°C 86% 8.0 mph NE12.9 kmh NE 24.0 mph38.6 kmh 29.81 in1009.5 mb 0.00 in0.0 mm 0.00 in0.0 mm 0.10 in2.5 mm
04:32 AM 17.7°F-7.9°C 14.3°F-9.8°C 86% 12.0 mph NNW19.3 kmh NNW 23.0 mph37.0 kmh 29.81 in1009.5 mb 0.00 in0.0 mm 0.00 in0.0 mm 0.10 in2.5 mm
04:27 AM 17.6°F-8.0°C 14.2°F-9.9°C 86% 9.0 mph N14.5 kmh N 20.0 mph32.2 kmh 29.81 in1009.5 mb 0.00 in0.0 mm 0.00 in0.0 mm 0.10 in2.5 mm
04:22 AM 17.5°F-8.1°C 14.1°F-9.9°C 86% 11.0 mph N17.7 kmh N 20.0 mph32.2 kmh 29.80 in1009.1 mb 0.00 in0.0 mm 0.00 in0.0 mm 0.10 in2.5 mm
04:17 AM 17.4°F-8.1°C 14.0°F-10.0°C 86% 6.0 mph NNW9.7 kmh NNW 20.0 mph32.2 kmh 29.80 in1009.1 mb 0.00 in0.0 mm 0.00 in0.0 mm 0.10 in2.5 mm
04:12 AM 17.4°F-8.1°C 14.0°F-10.0°C 86% 10.0 mph N16.1 kmh N 18.0 mph29.0 kmh 29.80 in1009.1 mb 0.00 in0.0 mm 0.00 in0.0 mm 0.10 in2.5 mm
04:07 AM 17.4°F-8.1°C 14.0°F-10.0°C 86% 6.0 mph NNE9.7 kmh NNE 19.0 mph30.6 kmh 29.79 in1008.8 mb 0.00 in0.0 mm 0.00 in0.0 mm 0.10 in2.5 mm
04:02 AM 17.3°F-8.2°C 13.9°F-10.1°C 86% 9.0 mph N14.5 kmh N 19.0 mph30.6 kmh 29.79 in1008.8 mb 0.00 in0.0 mm 0.00 in0.0 mm 0.10 in2.5 mm
03:57 AM 17.3°F-8.2°C 13.9°F-10.1°C 86% 8.0 mph NW12.9 kmh NW 19.0 mph30.6 kmh 29.79 in1008.8 mb 0.00 in0.0 mm 0.00 in0.0 mm 0.10 in2.5 mm
03:52 AM 17.3°F-8.2°C 13.9°F-10.1°C 86% 7.0 mph NNE11.3 kmh NNE 19.0 mph30.6 kmh 29.79 in1008.8 mb 0.00 in0.0 mm 0.00 in0.0 mm 0.10 in2.5 mm
03:47 AM 17.2°F-8.2°C 13.8°F-10.1°C 86% 7.0 mph NNW11.3 kmh NNW 17.0 mph27.4 kmh 29.79 in1008.8 mb 0.00 in0.0 mm 0.00 in0.0 mm 0.10 in2.5 mm
03:42 AM 17.2°F-8.2°C 13.8°F-10.1°C 86% 14.0 mph N22.5 kmh N 17.0 mph27.4 kmh 29.79 in1008.8 mb 0.00 in0.0 mm 0.00 in0.0 mm 0.10 in2.5 mm
03:37 AM 17.1°F-8.3°C 13.7°F-10.2°C 86% 4.0 mph NE6.4 kmh NE 18.0 mph29.0 kmh 29.80 in1009.1 mb 0.00 in0.0 mm 0.00 in0.0 mm 0.10 in2.5 mm
03:32 AM 17.0°F-8.3°C 13.6°F-10.2°C 86% 7.0 mph NNE11.3 kmh NNE 18.0 mph29.0 kmh 29.79 in1008.8 mb 0.00 in0.0 mm 0.00 in0.0 mm 0.10 in2.5 mm
03:27 AM 16.9°F-8.4°C 13.5°F-10.3°C 86% 4.0 mph NNW6.4 kmh NNW 18.0 mph29.0 kmh 29.80 in1009.1 mb 0.00 in0.0 mm 0.00 in0.0 mm 0.09 in2.3 mm
03:22 AM 16.9°F-8.4°C 13.5°F-10.3°C 86% 15.0 mph NNE24.1 kmh NNE 18.0 mph29.0 kmh 29.80 in1009.1 mb 0.00 in0.0 mm 0.00 in0.0 mm 0.09 in2.3 mm
03:17 AM 16.7°F-8.5°C 13.3°F-10.4°C 86% 9.0 mph 14.5 kmh 20.0 mph32.2 kmh 29.80 in1009.1 mb 0.00 in0.0 mm 0.00 in0.0 mm 0.09 in2.3 mm
03:12 AM 16.7°F-8.5°C 13.3°F-10.4°C 86% 8.0 mph N12.9 kmh N 20.0 mph32.2 kmh 29.80 in1009.1 mb 0.00 in0.0 mm 0.00 in0.0 mm 0.09 in2.3 mm
03:07 AM 16.8°F-8.4°C 13.4°F-10.3°C 86% 6.0 mph NNW9.7 kmh NNW 20.0 mph32.2 kmh 29.79 in1008.8 mb 0.00 in0.0 mm 0.00 in0.0 mm 0.09 in2.3 mm
03:02 AM 16.9°F-8.4°C 13.5°F-10.3°C 86% 6.0 mph N9.7 kmh N 20.0 mph32.2 kmh 29.79 in1008.8 mb 0.00 in0.0 mm 0.00 in0.0 mm 0.09 in2.3 mm
02:57 AM 17.0°F-8.3°C 13.6°F-10.2°C 86% 9.0 mph N14.5 kmh N 22.0 mph35.4 kmh 29.78 in1008.5 mb 0.00 in0.0 mm 0.00 in0.0 mm 0.09 in2.3 mm
02:52 AM 17.1°F-8.3°C 13.7°F-10.2°C 86% 7.0 mph N11.3 kmh N 22.0 mph35.4 kmh 29.78 in1008.5 mb 0.00 in0.0 mm 0.00 in0.0 mm 0.09 in2.3 mm
02:47 AM 17.2°F-8.2°C 13.8°F-10.1°C 86% 22.0 mph NNW35.4 kmh NNW 24.0 mph38.6 kmh 29.78 in1008.5 mb 0.00 in0.0 mm 0.00 in0.0 mm 0.09 in2.3 mm
02:42 AM 17.4°F-8.1°C 14.0°F-10.0°C 86% 12.0 mph N19.3 kmh N 24.0 mph38.6 kmh 29.77 in1008.1 mb 0.00 in0.0 mm 0.00 in0.0 mm 0.08 in2.0 mm
02:37 AM 17.6°F-8.0°C 14.2°F-9.9°C 86% 8.0 mph 12.9 kmh 24.0 mph38.6 kmh 29.77 in1008.1 mb 0.00 in0.0 mm 0.00 in0.0 mm 0.08 in2.0 mm
02:32 AM 17.8°F-7.9°C 14.4°F-9.8°C 86% 8.0 mph NW12.9 kmh NW 24.0 mph38.6 kmh 29.76 in1007.8 mb 0.04 in1.0 mm 0.00 in0.0 mm 0.08 in2.0 mm
02:27 AM 18.1°F-7.7°C 14.7°F-9.6°C 86% 10.0 mph NW16.1 kmh NW 20.0 mph32.2 kmh 29.76 in1007.8 mb 0.04 in1.0 mm 0.00 in0.0 mm 0.08 in2.0 mm
02:22 AM 18.3°F-7.6°C 14.9°F-9.5°C 86% 20.0 mph 32.2 kmh 20.0 mph32.2 kmh 29.76 in1007.8 mb 0.04 in1.0 mm 0.00 in0.0 mm 0.08 in2.0 mm
02:17 AM 18.4°F-7.6°C 15.0°F-9.4°C 86% 9.0 mph WNW14.5 kmh WNW 22.0 mph35.4 kmh 29.74 in1007.1 mb 0.04 in1.0 mm 0.00 in0.0 mm 0.07 in1.8 mm
02:12 AM 18.6°F-7.4°C 15.2°F-9.3°C 86% 4.0 mph NNE6.4 kmh NNE 22.0 mph35.4 kmh 29.75 in1007.5 mb 0.04 in1.0 mm 0.00 in0.0 mm 0.07 in1.8 mm
02:07 AM 18.8°F-7.3°C 15.4°F-9.2°C 86% 11.0 mph NE17.7 kmh NE 24.0 mph38.6 kmh 29.75 in1007.5 mb 0.04 in1.0 mm 0.00 in0.0 mm 0.07 in1.8 mm
02:02 AM 18.9°F-7.3°C 15.5°F-9.2°C 86% 9.0 mph N14.5 kmh N 24.0 mph38.6 kmh 29.75 in1007.5 mb 0.04 in1.0 mm 0.00 in0.0 mm 0.06 in1.5 mm
01:57 AM 19.2°F-7.1°C 16.0°F-8.9°C 87% 7.0 mph NNE11.3 kmh NNE 24.0 mph38.6 kmh 29.75 in1007.5 mb 0.05 in1.3 mm 0.00 in0.0 mm 0.06 in1.5 mm
01:52 AM 19.4°F-7.0°C 16.2°F-8.8°C 87% 14.0 mph NNE22.5 kmh NNE 24.0 mph38.6 kmh 29.74 in1007.1 mb 0.05 in1.3 mm 0.00 in0.0 mm 0.06 in1.5 mm
01:47 AM 19.4°F-7.0°C 16.2°F-8.8°C 87% 7.0 mph NNW11.3 kmh NNW 20.0 mph32.2 kmh 29.75 in1007.5 mb 0.05 in1.3 mm 0.60 in15.2 mm 0.05 in1.3 mm
01:42 AM 19.5°F-6.9°C 16.3°F-8.7°C 87% 8.0 mph NE12.9 kmh NE 20.0 mph32.2 kmh 29.74 in1007.1 mb 0.00 in0.0 mm 0.00 in0.0 mm 0.05 in1.3 mm
01:37 AM 19.6°F-6.9°C 16.4°F-8.7°C 87% 12.0 mph NE19.3 kmh NE 20.0 mph32.2 kmh 29.74 in1007.1 mb 0.00 in0.0 mm 0.00 in0.0 mm 0.05 in1.3 mm
01:32 AM 19.8°F-6.8°C 16.6°F-8.6°C 87% 8.0 mph NNE12.9 kmh NNE 19.0 mph30.6 kmh 29.74 in1007.1 mb 0.00 in0.0 mm 0.00 in0.0 mm 0.04 in1.0 mm
01:27 AM 19.9°F-6.7°C 16.7°F-8.5°C 87% 10.0 mph NNE16.1 kmh NNE 18.0 mph29.0 kmh 29.74 in1007.1 mb 0.00 in0.0 mm 0.00 in0.0 mm 0.04 in1.0 mm
01:22 AM 20.1°F-6.6°C 16.9°F-8.4°C 87% 4.0 mph NNE6.4 kmh NNE 18.0 mph29.0 kmh 29.74 in1007.1 mb 0.00 in0.0 mm 0.00 in0.0 mm 0.04 in1.0 mm
01:17 AM 20.1°F-6.6°C 16.9°F-8.4°C 87% 15.0 mph N24.1 kmh N 30.0 mph48.3 kmh 29.74 in1007.1 mb 0.00 in0.0 mm 0.00 in0.0 mm 0.04 in1.0 mm
01:12 AM 20.1°F-6.6°C 16.9°F-8.4°C 87% 12.0 mph N19.3 kmh N 30.0 mph48.3 kmh 29.74 in1007.1 mb 0.00 in0.0 mm 0.00 in0.0 mm 0.03 in0.8 mm
01:07 AM 20.1°F-6.6°C 16.9°F-8.4°C 87% 3.0 mph NNE4.8 kmh NNE 30.0 mph48.3 kmh 29.73 in1006.8 mb 0.00 in0.0 mm 0.00 in0.0 mm 0.03 in0.8 mm
01:02 AM 20.3°F-6.5°C 17.1°F-8.3°C 87% 26.0 mph N41.8 kmh N 30.0 mph48.3 kmh 29.73 in1006.8 mb 0.00 in0.0 mm 0.00 in0.0 mm 0.03 in0.8 mm
12:57 AM 20.4°F-6.4°C 17.2°F-8.2°C 87% 6.0 mph NE9.7 kmh NE 23.0 mph37.0 kmh 29.73 in1006.8 mb 0.00 in0.0 mm 0.00 in0.0 mm 0.04 in1.0 mm
12:52 AM 20.6°F-6.3°C 17.4°F-8.1°C 87% 13.0 mph N20.9 kmh N 23.0 mph37.0 kmh 29.73 in1006.8 mb 0.00 in0.0 mm 0.00 in0.0 mm 0.04 in1.0 mm
12:47 AM 20.6°F-6.3°C 17.4°F-8.1°C 87% 13.0 mph 20.9 kmh 23.0 mph37.0 kmh 29.73 in1006.8 mb 0.04 in1.0 mm 0.00 in0.0 mm 0.04 in1.0 mm
12:42 AM 20.6°F-6.3°C 17.4°F-8.1°C 87% 10.0 mph NE16.1 kmh NE 23.0 mph37.0 kmh 29.75 in1007.5 mb 0.04 in1.0 mm 0.00 in0.0 mm 0.04 in1.0 mm
12:37 AM 20.7°F-6.3°C 17.5°F-8.1°C 87% 14.0 mph N22.5 kmh N 22.0 mph35.4 kmh 29.75 in1007.5 mb 0.04 in1.0 mm 0.00 in0.0 mm 0.04 in1.0 mm
12:32 AM 20.9°F-6.2°C 17.7°F-7.9°C 87% 14.0 mph NE22.5 kmh NE 22.0 mph35.4 kmh 29.75 in1007.5 mb 0.04 in1.0 mm 0.00 in0.0 mm 0.04 in1.0 mm
12:27 AM 21.1°F-6.1°C 17.9°F-7.8°C 87% 18.0 mph NE29.0 kmh NE 25.0 mph40.2 kmh 29.75 in1007.5 mb 0.04 in1.0 mm 0.00 in0.0 mm 0.04 in1.0 mm
12:22 AM 21.3°F-5.9°C 18.1°F-7.7°C 87% 10.0 mph NNE16.1 kmh NNE 25.0 mph40.2 kmh 29.75 in1007.5 mb 0.04 in1.0 mm 0.00 in0.0 mm 0.04 in1.0 mm
12:17 AM 21.4°F-5.9°C 18.2°F-7.7°C 87% 4.0 mph N6.4 kmh N 25.0 mph40.2 kmh 29.76 in1007.8 mb 0.04 in1.0 mm 0.00 in0.0 mm 0.04 in1.0 mm
12:12 AM 21.6°F-5.8°C 18.7°F-7.4°C 88% 11.0 mph N17.7 kmh N 25.0 mph40.2 kmh 29.77 in1008.1 mb 0.04 in1.0 mm 0.00 in0.0 mm 0.04 in1.0 mm
12:07 AM 21.7°F-5.7°C 18.8°F-7.3°C 88% 5.0 mph NNW8.0 kmh NNW 21.0 mph33.8 kmh 29.77 in1008.1 mb 0.04 in1.0 mm 0.00 in0.0 mm 0.04 in1.0 mm
12:02 AM 21.7°F-5.7°C 18.8°F-7.3°C 88% 10.0 mph N16.1 kmh N 22.0 mph35.4 kmh 29.77 in1008.1 mb 0.04 in1.0 mm 1.20 in30.5 mm 0.04 in1.0 mm